sensor_id;sensor_type;location;lat;lon;timestamp;temperature;humidity
51914;DHT22;37940;53.002;6.930;2023-02-28T00:01:21;2.90;99.90
51914;DHT22;37940;53.002;6.930;2023-02-28T00:03:47;3.00;99.90
51914;DHT22;37940;53.002;6.930;2023-02-28T00:06:13;3.00;99.90
51914;DHT22;37940;53.002;6.930;2023-02-28T00:08:39;3.00;99.90
51914;DHT22;37940;53.002;6.930;2023-02-28T00:11:10;3.00;99.90
51914;DHT22;37940;53.002;6.930;2023-02-28T00:13:38;3.00;99.90
51914;DHT22;37940;53.002;6.930;2023-02-28T00:16:07;3.00;99.90
51914;DHT22;37940;53.002;6.930;2023-02-28T00:18:33;3.00;99.90
51914;DHT22;37940;53.002;6.930;2023-02-28T00:20:59;3.00;99.90
51914;DHT22;37940;53.002;6.930;2023-02-28T00:23:26;3.00;99.90
51914;DHT22;37940;53.002;6.930;2023-02-28T00:25:52;3.00;99.90
51914;DHT22;37940;53.002;6.930;2023-02-28T00:28:18;3.60;99.90
51914;DHT22;37940;53.002;6.930;2023-02-28T00:30:44;3.00;99.90
51914;DHT22;37940;53.002;6.930;2023-02-28T00:33:10;3.00;99.90
51914;DHT22;37940;53.002;6.930;2023-02-28T00:35:35;3.00;99.90
51914;DHT22;37940;53.002;6.930;2023-02-28T00:38:01;3.00;99.90
51914;DHT22;37940;53.002;6.930;2023-02-28T00:40:28;3.10;99.90
51914;DHT22;37940;53.002;6.930;2023-02-28T00:42:53;3.00;99.90
51914;DHT22;37940;53.002;6.930;2023-02-28T00:45:19;2.90;99.90
51914;DHT22;37940;53.002;6.930;2023-02-28T00:47:45;3.00;99.90
51914;DHT22;37940;53.002;6.930;2023-02-28T00:50:12;3.00;99.90
51914;DHT22;37940;53.002;6.930;2023-02-28T00:52:38;3.00;99.90
51914;DHT22;37940;53.002;6.930;2023-02-28T00:55:04;3.00;99.90
51914;DHT22;37940;53.002;6.930;2023-02-28T00:57:30;2.90;99.90
51914;DHT22;37940;53.002;6.930;2023-02-28T00:59:56;3.00;99.90
51914;DHT22;37940;53.002;6.930;2023-02-28T01:02:22;3.00;99.90
51914;DHT22;37940;53.002;6.930;2023-02-28T01:04:48;3.00;99.90
51914;DHT22;37940;53.002;6.930;2023-02-28T01:07:14;3.00;99.90
51914;DHT22;37940;53.002;6.930;2023-02-28T01:09:41;3.00;99.90
51914;DHT22;37940;53.002;6.930;2023-02-28T01:12:07;3.00;99.90
51914;DHT22;37940;53.002;6.930;2023-02-28T01:14:34;3.00;99.90
51914;DHT22;37940;53.002;6.930;2023-02-28T01:17:00;3.00;99.90
51914;DHT22;37940;53.002;6.930;2023-02-28T01:19:26;3.00;99.90
51914;DHT22;37940;53.002;6.930;2023-02-28T01:21:52;3.00;99.90
51914;DHT22;37940;53.002;6.930;2023-02-28T01:24:18;3.00;99.90
51914;DHT22;37940;53.002;6.930;2023-02-28T01:26:44;3.10;99.90
51914;DHT22;37940;53.002;6.930;2023-02-28T01:29:10;3.10;99.90
51914;DHT22;37940;53.002;6.930;2023-02-28T01:31:36;3.10;99.90
51914;DHT22;37940;53.002;6.930;2023-02-28T01:34:02;3.10;99.90
51914;DHT22;37940;53.002;6.930;2023-02-28T01:36:28;3.00;99.90
51914;DHT22;37940;53.002;6.930;2023-02-28T01:38:54;3.00;99.90
51914;DHT22;37940;53.002;6.930;2023-02-28T01:41:26;3.00;99.90
51914;DHT22;37940;53.002;6.930;2023-02-28T01:43:56;3.10;99.90
51914;DHT22;37940;53.002;6.930;2023-02-28T01:46:22;3.00;99.90
51914;DHT22;37940;53.002;6.930;2023-02-28T01:51:52;3.00;99.90
51914;DHT22;37940;53.002;6.930;2023-02-28T01:54:31;3.00;99.90
51914;DHT22;37940;53.002;6.930;2023-02-28T01:57:04;3.00;99.90
51914;DHT22;37940;53.002;6.930;2023-02-28T01:59:38;3.00;99.90
51914;DHT22;37940;53.002;6.930;2023-02-28T02:02:10;3.00;99.90
51914;DHT22;37940;53.002;6.930;2023-02-28T02:04:40;3.00;99.90
51914;DHT22;37940;53.002;6.930;2023-02-28T02:07:09;3.00;99.90
51914;DHT22;37940;53.002;6.930;2023-02-28T02:09:35;2.90;99.90
51914;DHT22;37940;53.002;6.930;2023-02-28T02:12:12;3.00;99.90
51914;DHT22;37940;53.002;6.930;2023-02-28T02:15:25;2.90;99.90
51914;DHT22;37940;53.002;6.930;2023-02-28T02:17:57;3.00;99.90
51914;DHT22;37940;53.002;6.930;2023-02-28T02:34:52;3.00;99.90
51914;DHT22;37940;53.002;6.930;2023-02-28T02:37:36;3.00;99.90
51914;DHT22;37940;53.002;6.930;2023-02-28T02:40:15;3.00;99.90
51914;DHT22;37940;53.002;6.930;2023-02-28T02:48:03;2.90;99.90
51914;DHT22;37940;53.002;6.930;2023-02-28T02:50:36;2.90;99.90
51914;DHT22;37940;53.002;6.930;2023-02-28T02:53:03;2.90;99.90
51914;DHT22;37940;53.002;6.930;2023-02-28T02:55:37;2.90;99.90
51914;DHT22;37940;53.002;6.930;2023-02-28T02:58:08;2.90;99.90
51914;DHT22;37940;53.002;6.930;2023-02-28T03:00:42;2.90;99.90
51914;DHT22;37940;53.002;6.930;2023-02-28T03:03:09;2.80;99.90
51914;DHT22;37940;53.002;6.930;2023-02-28T03:05:43;2.80;99.90
51914;DHT22;37940;53.002;6.930;2023-02-28T03:08:10;2.80;99.90
51914;DHT22;37940;53.002;6.930;2023-02-28T03:10:38;2.80;99.90
51914;DHT22;37940;53.002;6.930;2023-02-28T03:24:51;2.70;99.90
51914;DHT22;37940;53.002;6.930;2023-02-28T03:27:49;2.80;99.90
51914;DHT22;37940;53.002;6.930;2023-02-28T03:30:24;2.70;99.90
51914;DHT22;37940;53.002;6.930;2023-02-28T03:33:13;2.70;99.90
51914;DHT22;37940;53.002;6.930;2023-02-28T03:35:52;2.70;99.90
51914;DHT22;37940;53.002;6.930;2023-02-28T03:38:36;2.70;99.90
51914;DHT22;37940;53.002;6.930;2023-02-28T03:41:10;2.70;99.90
51914;DHT22;37940;53.002;6.930;2023-02-28T03:43:42;2.70;99.90
51914;DHT22;37940;53.002;6.930;2023-02-28T03:46:13;2.60;99.90
51914;DHT22;37940;53.002;6.930;2023-02-28T03:48:45;2.60;99.90
51914;DHT22;37940;53.002;6.930;2023-02-28T03:51:17;2.60;99.90
51914;DHT22;37940;53.002;6.930;2023-02-28T03:54:06;2.80;99.90
51914;DHT22;37940;53.002;6.930;2023-02-28T03:56:38;2.60;99.90
51914;DHT22;37940;53.002;6.930;2023-02-28T04:01:47;2.60;99.90
51914;DHT22;37940;53.002;6.930;2023-02-28T04:04:15;2.60;99.90
51914;DHT22;37940;53.002;6.930;2023-02-28T04:06:41;2.60;99.90
51914;DHT22;37940;53.002;6.930;2023-02-28T04:09:09;2.60;99.90
51914;DHT22;37940;53.002;6.930;2023-02-28T04:11:40;2.60;99.90
51914;DHT22;37940;53.002;6.930;2023-02-28T04:14:08;2.50;99.90
51914;DHT22;37940;53.002;6.930;2023-02-28T04:16:36;2.50;99.90
51914;DHT22;37940;53.002;6.930;2023-02-28T04:19:03;2.50;99.90
51914;DHT22;37940;53.002;6.930;2023-02-28T04:21:45;2.50;99.90
51914;DHT22;37940;53.002;6.930;2023-02-28T04:24:14;2.50;99.90
51914;DHT22;37940;53.002;6.930;2023-02-28T04:26:42;3.00;99.90
51914;DHT22;37940;53.002;6.930;2023-02-28T04:29:13;2.60;99.90
51914;DHT22;37940;53.002;6.930;2023-02-28T04:31:39;2.50;99.90
51914;DHT22;37940;53.002;6.930;2023-02-28T04:34:05;2.50;99.90
51914;DHT22;37940;53.002;6.930;2023-02-28T04:36:31;3.30;99.90
51914;DHT22;37940;53.002;6.930;2023-02-28T04:38:57;2.60;99.90
51914;DHT22;37940;53.002;6.930;2023-02-28T04:41:23;2.50;99.90
51914;DHT22;37940;53.002;6.930;2023-02-28T04:43:51;2.50;99.90
51914;DHT22;37940;53.002;6.930;2023-02-28T04:46:18;2.50;99.90
51914;DHT22;37940;53.002;6.930;2023-02-28T04:48:44;2.50;99.90
51914;DHT22;37940;53.002;6.930;2023-02-28T04:51:12;2.50;99.90
51914;DHT22;37940;53.002;6.930;2023-02-28T04:53:40;2.50;99.90
51914;DHT22;37940;53.002;6.930;2023-02-28T04:56:07;2.50;99.90
51914;DHT22;37940;53.002;6.930;2023-02-28T04:58:34;2.50;99.90
51914;DHT22;37940;53.002;6.930;2023-02-28T05:01:20;3.20;99.90
51914;DHT22;37940;53.002;6.930;2023-02-28T05:03:46;2.50;99.90
51914;DHT22;37940;53.002;6.930;2023-02-28T05:06:13;2.40;99.90
51914;DHT22;37940;53.002;6.930;2023-02-28T05:08:39;2.40;99.90
51914;DHT22;37940;53.002;6.930;2023-02-28T05:11:31;3.20;99.90
51914;DHT22;37940;53.002;6.930;2023-02-28T05:14:06;2.40;99.90
51914;DHT22;37940;53.002;6.930;2023-02-28T05:16:33;2.50;99.90
51914;DHT22;37940;53.002;6.930;2023-02-28T05:18:59;2.40;99.90
51914;DHT22;37940;53.002;6.930;2023-02-28T05:21:39;2.40;99.90
51914;DHT22;37940;53.002;6.930;2023-02-28T05:24:08;2.40;99.90
51914;DHT22;37940;53.002;6.930;2023-02-28T05:26:36;2.40;99.90
51914;DHT22;37940;53.002;6.930;2023-02-28T05:29:03;2.40;99.90
51914;DHT22;37940;53.002;6.930;2023-02-28T05:31:28;2.40;99.90
51914;DHT22;37940;53.002;6.930;2023-02-28T05:33:54;2.80;99.90
51914;DHT22;37940;53.002;6.930;2023-02-28T05:36:20;2.50;99.90
51914;DHT22;37940;53.002;6.930;2023-02-28T05:38:47;3.40;99.90
51914;DHT22;37940;53.002;6.930;2023-02-28T05:41:14;2.40;99.90
51914;DHT22;37940;53.002;6.930;2023-02-28T05:43:40;2.40;99.90
51914;DHT22;37940;53.002;6.930;2023-02-28T05:46:07;2.40;99.90
51914;DHT22;37940;53.002;6.930;2023-02-28T05:48:34;2.40;99.90
51914;DHT22;37940;53.002;6.930;2023-02-28T05:51:00;2.40;99.90
51914;DHT22;37940;53.002;6.930;2023-02-28T05:53:26;2.80;99.90
51914;DHT22;37940;53.002;6.930;2023-02-28T05:55:52;2.40;99.90
51914;DHT22;37940;53.002;6.930;2023-02-28T05:58:18;2.40;99.90
51914;DHT22;37940;53.002;6.930;2023-02-28T06:00:44;2.40;99.90
51914;DHT22;37940;53.002;6.930;2023-02-28T06:03:11;2.30;99.90
51914;DHT22;37940;53.002;6.930;2023-02-28T06:05:39;2.30;99.90
51914;DHT22;37940;53.002;6.930;2023-02-28T06:08:05;2.30;99.90
51914;DHT22;37940;53.002;6.930;2023-02-28T06:10:33;2.30;99.90
51914;DHT22;37940;53.002;6.930;2023-02-28T06:13:03;2.30;99.90
51914;DHT22;37940;53.002;6.930;2023-02-28T06:15:30;2.30;99.90
51914;DHT22;37940;53.002;6.930;2023-02-28T06:17:56;2.30;99.90
51914;DHT22;37940;53.002;6.930;2023-02-28T06:20:23;2.30;99.90
51914;DHT22;37940;53.002;6.930;2023-02-28T06:22:49;2.20;99.90
51914;DHT22;37940;53.002;6.930;2023-02-28T06:25:20;2.20;99.90
51914;DHT22;37940;53.002;6.930;2023-02-28T06:27:45;2.20;99.90
51914;DHT22;37940;53.002;6.930;2023-02-28T06:30:12;2.30;99.90
51914;DHT22;37940;53.002;6.930;2023-02-28T06:32:38;2.20;99.90
51914;DHT22;37940;53.002;6.930;2023-02-28T06:35:05;2.20;99.90
51914;DHT22;37940;53.002;6.930;2023-02-28T06:37:31;2.30;99.90
51914;DHT22;37940;53.002;6.930;2023-02-28T06:39:57;2.30;99.90
51914;DHT22;37940;53.002;6.930;2023-02-28T06:42:24;2.30;99.90
51914;DHT22;37940;53.002;6.930;2023-02-28T06:44:58;2.30;99.90
51914;DHT22;37940;53.002;6.930;2023-02-28T06:47:24;2.30;99.90
51914;DHT22;37940;53.002;6.930;2023-02-28T06:49:50;2.40;99.90
51914;DHT22;37940;53.002;6.930;2023-02-28T06:52:16;2.30;99.90
51914;DHT22;37940;53.002;6.930;2023-02-28T06:54:42;2.30;99.90
51914;DHT22;37940;53.002;6.930;2023-02-28T06:57:08;2.30;99.90
51914;DHT22;37940;53.002;6.930;2023-02-28T06:59:34;2.30;99.90
51914;DHT22;37940;53.002;6.930;2023-02-28T07:02:01;2.40;99.90
51914;DHT22;37940;53.002;6.930;2023-02-28T07:04:27;2.40;99.90
51914;DHT22;37940;53.002;6.930;2023-02-28T07:06:55;2.40;99.90
51914;DHT22;37940;53.002;6.930;2023-02-28T07:09:22;2.50;99.90
51914;DHT22;37940;53.002;6.930;2023-02-28T07:11:48;2.60;99.90
51914;DHT22;37940;53.002;6.930;2023-02-28T07:14:14;2.60;99.90
51914;DHT22;37940;53.002;6.930;2023-02-28T07:16:40;2.70;99.90
51914;DHT22;37940;53.002;6.930;2023-02-28T07:19:06;2.80;99.90
51914;DHT22;37940;53.002;6.930;2023-02-28T07:21:32;3.00;99.90
51914;DHT22;37940;53.002;6.930;2023-02-28T07:23:58;3.20;99.90
51914;DHT22;37940;53.002;6.930;2023-02-28T07:26:23;3.30;99.90
51914;DHT22;37940;53.002;6.930;2023-02-28T07:28:49;3.40;99.90
51914;DHT22;37940;53.002;6.930;2023-02-28T07:31:16;3.40;99.90
51914;DHT22;37940;53.002;6.930;2023-02-28T07:33:43;3.40;99.90
51914;DHT22;37940;53.002;6.930;2023-02-28T07:36:11;3.50;99.90
51914;DHT22;37940;53.002;6.930;2023-02-28T07:38:45;3.50;99.90
51914;DHT22;37940;53.002;6.930;2023-02-28T07:41:17;3.50;99.90
51914;DHT22;37940;53.002;6.930;2023-02-28T07:43:44;3.60;99.90
51914;DHT22;37940;53.002;6.930;2023-02-28T07:46:12;3.70;99.90
51914;DHT22;37940;53.002;6.930;2023-02-28T07:48:40;3.70;99.90
51914;DHT22;37940;53.002;6.930;2023-02-28T07:51:06;3.70;99.90
51914;DHT22;37940;53.002;6.930;2023-02-28T07:53:32;3.70;99.90
51914;DHT22;37940;53.002;6.930;2023-02-28T07:56:00;3.70;99.90
51914;DHT22;37940;53.002;6.930;2023-02-28T07:58:27;3.70;99.90
51914;DHT22;37940;53.002;6.930;2023-02-28T08:00:53;3.70;99.90
51914;DHT22;37940;53.002;6.930;2023-02-28T08:03:20;3.70;99.90
51914;DHT22;37940;53.002;6.930;2023-02-28T08:05:47;3.80;99.90
51914;DHT22;37940;53.002;6.930;2023-02-28T08:08:14;3.70;99.90
51914;DHT22;37940;53.002;6.930;2023-02-28T08:10:40;3.80;99.90
51914;DHT22;37940;53.002;6.930;2023-02-28T08:13:07;3.80;99.90
51914;DHT22;37940;53.002;6.930;2023-02-28T08:15:32;3.80;99.90
51914;DHT22;37940;53.002;6.930;2023-02-28T08:17:58;3.80;99.90
51914;DHT22;37940;53.002;6.930;2023-02-28T08:20:25;3.80;99.90
51914;DHT22;37940;53.002;6.930;2023-02-28T08:22:51;3.80;99.90
51914;DHT22;37940;53.002;6.930;2023-02-28T08:25:17;3.90;99.90
51914;DHT22;37940;53.002;6.930;2023-02-28T08:27:43;3.90;99.90
51914;DHT22;37940;53.002;6.930;2023-02-28T08:30:13;4.10;99.90
51914;DHT22;37940;53.002;6.930;2023-02-28T08:32:40;4.10;99.90
51914;DHT22;37940;53.002;6.930;2023-02-28T08:35:06;4.20;99.90
51914;DHT22;37940;53.002;6.930;2023-02-28T08:37:32;4.30;99.90
51914;DHT22;37940;53.002;6.930;2023-02-28T08:39:58;4.50;99.90
51914;DHT22;37940;53.002;6.930;2023-02-28T08:42:24;4.60;99.90
51914;DHT22;37940;53.002;6.930;2023-02-28T08:44:50;4.80;99.90
51914;DHT22;37940;53.002;6.930;2023-02-28T08:47:16;4.90;99.90
51914;DHT22;37940;53.002;6.930;2023-02-28T08:49:41;4.90;99.90
51914;DHT22;37940;53.002;6.930;2023-02-28T08:52:07;4.80;99.90
51914;DHT22;37940;53.002;6.930;2023-02-28T08:54:33;4.70;99.90
51914;DHT22;37940;53.002;6.930;2023-02-28T08:57:00;4.60;99.90
51914;DHT22;37940;53.002;6.930;2023-02-28T08:59:26;4.50;99.90
51914;DHT22;37940;53.002;6.930;2023-02-28T09:01:51;4.40;99.90
51914;DHT22;37940;53.002;6.930;2023-02-28T09:04:17;4.30;99.90
51914;DHT22;37940;53.002;6.930;2023-02-28T09:06:43;4.20;99.90
51914;DHT22;37940;53.002;6.930;2023-02-28T09:09:09;4.20;99.90
51914;DHT22;37940;53.002;6.930;2023-02-28T09:11:35;4.10;99.90
51914;DHT22;37940;53.002;6.930;2023-02-28T09:14:02;4.20;99.90
51914;DHT22;37940;53.002;6.930;2023-02-28T09:16:29;4.30;99.90
51914;DHT22;37940;53.002;6.930;2023-02-28T09:18:56;4.40;99.90
51914;DHT22;37940;53.002;6.930;2023-02-28T09:21:22;4.60;99.90
51914;DHT22;37940;53.002;6.930;2023-02-28T09:23:50;4.60;99.90
51914;DHT22;37940;53.002;6.930;2023-02-28T09:26:26;4.60;99.90
51914;DHT22;37940;53.002;6.930;2023-02-28T09:28:53;4.60;99.90
51914;DHT22;37940;53.002;6.930;2023-02-28T09:31:25;4.70;99.90
51914;DHT22;37940;53.002;6.930;2023-02-28T09:33:55;4.80;99.90
51914;DHT22;37940;53.002;6.930;2023-02-28T09:36:23;4.90;99.90
51914;DHT22;37940;53.002;6.930;2023-02-28T09:38:49;5.10;99.90
51914;DHT22;37940;53.002;6.930;2023-02-28T09:41:23;5.30;99.90
51914;DHT22;37940;53.002;6.930;2023-02-28T09:43:57;5.40;99.90
51914;DHT22;37940;53.002;6.930;2023-02-28T09:46:47;5.60;99.90
51914;DHT22;37940;53.002;6.930;2023-02-28T09:49:23;5.90;99.90
51914;DHT22;37940;53.002;6.930;2023-02-28T09:52:02;6.00;99.90
51914;DHT22;37940;53.002;6.930;2023-02-28T09:54:31;6.10;99.90
51914;DHT22;37940;53.002;6.930;2023-02-28T09:57:01;6.20;99.90
51914;DHT22;37940;53.002;6.930;2023-02-28T10:05:10;7.10;99.90
51914;DHT22;37940;53.002;6.930;2023-02-28T10:12:55;7.50;99.90
51914;DHT22;37940;53.002;6.930;2023-02-28T10:15:24;7.60;99.90
51914;DHT22;37940;53.002;6.930;2023-02-28T10:17:56;7.70;99.90
51914;DHT22;37940;53.002;6.930;2023-02-28T10:20:24;7.80;99.90
51914;DHT22;37940;53.002;6.930;2023-02-28T10:23:10;7.90;99.90
51914;DHT22;37940;53.002;6.930;2023-02-28T10:25:38;7.90;99.90
51914;DHT22;37940;53.002;6.930;2023-02-28T10:28:17;7.90;99.90
51914;DHT22;37940;53.002;6.930;2023-02-28T10:30:48;7.90;99.90
51914;DHT22;37940;53.002;6.930;2023-02-28T10:35:52;8.10;99.90
51914;DHT22;37940;53.002;6.930;2023-02-28T10:38:22;8.10;99.90
51914;DHT22;37940;53.002;6.930;2023-02-28T10:44:16;8.10;99.90
51914;DHT22;37940;53.002;6.930;2023-02-28T10:46:43;8.20;99.90
51914;DHT22;37940;53.002;6.930;2023-02-28T10:49:28;8.20;99.90
51914;DHT22;37940;53.002;6.930;2023-02-28T10:51:59;8.20;99.90
51914;DHT22;37940;53.002;6.930;2023-02-28T10:54:34;7.90;99.90
51914;DHT22;37940;53.002;6.930;2023-02-28T10:57:30;7.70;99.90
51914;DHT22;37940;53.002;6.930;2023-02-28T11:00:24;7.40;99.90
51914;DHT22;37940;53.002;6.930;2023-02-28T11:02:51;7.00;99.90
51914;DHT22;37940;53.002;6.930;2023-02-28T11:05:31;6.80;99.90
51914;DHT22;37940;53.002;6.930;2023-02-28T11:08:12;6.60;99.90
51914;DHT22;37940;53.002;6.930;2023-02-28T11:10:43;6.40;99.90
51914;DHT22;37940;53.002;6.930;2023-02-28T11:13:17;6.40;99.90
51914;DHT22;37940;53.002;6.930;2023-02-28T11:15:58;6.30;99.90
51914;DHT22;37940;53.002;6.930;2023-02-28T11:18:33;6.20;99.90
51914;DHT22;37940;53.002;6.930;2023-02-28T11:21:02;6.00;99.90
51914;DHT22;37940;53.002;6.930;2023-02-28T11:23:30;6.00;99.90
51914;DHT22;37940;53.002;6.930;2023-02-28T11:26:00;5.90;99.90
51914;DHT22;37940;53.002;6.930;2023-02-28T11:28:41;5.80;99.90
51914;DHT22;37940;53.002;6.930;2023-02-28T11:33:51;5.60;99.90
51914;DHT22;37940;53.002;6.930;2023-02-28T11:38:43;5.60;99.90
51914;DHT22;37940;53.002;6.930;2023-02-28T11:43:57;5.70;99.90
51914;DHT22;37940;53.002;6.930;2023-02-28T11:46:37;5.70;99.90
51914;DHT22;37940;53.002;6.930;2023-02-28T11:49:31;5.90;99.90
51914;DHT22;37940;53.002;6.930;2023-02-28T12:05:50;6.50;99.90
51914;DHT22;37940;53.002;6.930;2023-02-28T12:08:22;6.60;99.90
51914;DHT22;37940;53.002;6.930;2023-02-28T12:13:48;6.60;99.90
51914;DHT22;37940;53.002;6.930;2023-02-28T12:27:23;6.30;99.90
51914;DHT22;37940;53.002;6.930;2023-02-28T12:30:02;6.20;99.90
51914;DHT22;37940;53.002;6.930;2023-02-28T12:32:37;6.10;99.90
51914;DHT22;37940;53.002;6.930;2023-02-28T12:35:11;6.10;99.90
51914;DHT22;37940;53.002;6.930;2023-02-28T12:38:09;6.10;99.90
51914;DHT22;37940;53.002;6.930;2023-02-28T12:40:56;6.20;99.90
51914;DHT22;37940;53.002;6.930;2023-02-28T12:43:30;6.20;99.90
51914;DHT22;37940;53.002;6.930;2023-02-28T12:46:19;6.20;99.90
51914;DHT22;37940;53.002;6.930;2023-02-28T12:48:53;6.20;99.90
51914;DHT22;37940;53.002;6.930;2023-02-28T12:51:23;6.10;99.90
51914;DHT22;37940;53.002;6.930;2023-02-28T12:59:42;6.40;99.90
51914;DHT22;37940;53.002;6.930;2023-02-28T13:10:07;6.10;99.90
51914;DHT22;37940;53.002;6.930;2023-02-28T13:12:34;6.00;99.90
51914;DHT22;37940;53.002;6.930;2023-02-28T13:15:27;6.00;99.90
51914;DHT22;37940;53.002;6.930;2023-02-28T13:17:56;5.90;99.90
51914;DHT22;37940;53.002;6.930;2023-02-28T13:20:26;5.90;99.90
51914;DHT22;37940;53.002;6.930;2023-02-28T13:22:53;5.90;99.90
51914;DHT22;37940;53.002;6.930;2023-02-28T13:27:53;6.00;99.90
51914;DHT22;37940;53.002;6.930;2023-02-28T13:34:03;6.40;99.90
51914;DHT22;37940;53.002;6.930;2023-02-28T13:36:29;6.70;99.90
51914;DHT22;37940;53.002;6.930;2023-02-28T13:39:03;6.80;99.90
51914;DHT22;37940;53.002;6.930;2023-02-28T13:41:48;6.90;99.90
51914;DHT22;37940;53.002;6.930;2023-02-28T13:44:22;7.00;99.90
51914;DHT22;37940;53.002;6.930;2023-02-28T13:55:10;7.10;99.90
51914;DHT22;37940;53.002;6.930;2023-02-28T14:06:26;7.10;99.90
51914;DHT22;37940;53.002;6.930;2023-02-28T14:08:58;7.10;99.90
51914;DHT22;37940;53.002;6.930;2023-02-28T14:11:33;7.00;99.90
51914;DHT22;37940;53.002;6.930;2023-02-28T14:14:00;6.90;99.90
51914;DHT22;37940;53.002;6.930;2023-02-28T14:16:47;6.90;99.90
51914;DHT22;37940;53.002;6.930;2023-02-28T14:19:36;6.90;99.90
51914;DHT22;37940;53.002;6.930;2023-02-28T14:36:23;6.80;99.90
51914;DHT22;37940;53.002;6.930;2023-02-28T14:38:53;6.80;99.90
51914;DHT22;37940;53.002;6.930;2023-02-28T14:41:23;6.70;99.90
51914;DHT22;37940;53.002;6.930;2023-02-28T14:43:53;6.70;99.90
51914;DHT22;37940;53.002;6.930;2023-02-28T14:46:20;6.70;99.90
51914;DHT22;37940;53.002;6.930;2023-02-28T14:48:48;6.70;99.90
51914;DHT22;37940;53.002;6.930;2023-02-28T14:51:19;6.80;99.90
51914;DHT22;37940;53.002;6.930;2023-02-28T14:53:50;6.80;99.90
51914;DHT22;37940;53.002;6.930;2023-02-28T14:56:23;6.80;99.90
51914;DHT22;37940;53.002;6.930;2023-02-28T14:58:55;6.80;99.90
51914;DHT22;37940;53.002;6.930;2023-02-28T15:01:23;6.80;99.90
51914;DHT22;37940;53.002;6.930;2023-02-28T15:04:01;6.80;99.90
51914;DHT22;37940;53.002;6.930;2023-02-28T15:06:30;6.70;99.90
51914;DHT22;37940;53.002;6.930;2023-02-28T15:09:16;6.80;99.90
51914;DHT22;37940;53.002;6.930;2023-02-28T15:11:46;6.70;99.90
51914;DHT22;37940;53.002;6.930;2023-02-28T15:14:19;6.70;99.90
51914;DHT22;37940;53.002;6.930;2023-02-28T15:16:52;6.70;99.90
51914;DHT22;37940;53.002;6.930;2023-02-28T15:21:50;6.70;99.90
51914;DHT22;37940;53.002;6.930;2023-02-28T15:24:39;6.70;99.90
51914;DHT22;37940;53.002;6.930;2023-02-28T15:27:16;6.70;99.90
51914;DHT22;37940;53.002;6.930;2023-02-28T15:29:49;6.70;99.90
51914;DHT22;37940;53.002;6.930;2023-02-28T15:32:37;6.60;99.90
51914;DHT22;37940;53.002;6.930;2023-02-28T15:35:27;6.60;99.90
51914;DHT22;37940;53.002;6.930;2023-02-28T15:38:16;6.60;99.90
51914;DHT22;37940;53.002;6.930;2023-02-28T15:40:57;6.60;99.90
51914;DHT22;37940;53.002;6.930;2023-02-28T15:48:31;6.40;99.90
51914;DHT22;37940;53.002;6.930;2023-02-28T15:51:08;6.40;99.90
51914;DHT22;37940;53.002;6.930;2023-02-28T15:53:47;6.30;99.90
51914;DHT22;37940;53.002;6.930;2023-02-28T15:56:35;6.30;99.90
51914;DHT22;37940;53.002;6.930;2023-02-28T15:59:05;6.30;99.90
51914;DHT22;37940;53.002;6.930;2023-02-28T16:01:36;6.20;99.90
51914;DHT22;37940;53.002;6.930;2023-02-28T16:04:05;6.20;99.90
51914;DHT22;37940;53.002;6.930;2023-02-28T16:06:44;6.10;99.90
51914;DHT22;37940;53.002;6.930;2023-02-28T16:09:19;6.00;99.90
51914;DHT22;37940;53.002;6.930;2023-02-28T16:11:49;6.00;99.90
51914;DHT22;37940;53.002;6.930;2023-02-28T16:14:21;5.90;99.90
51914;DHT22;37940;53.002;6.930;2023-02-28T16:16:51;5.90;99.90
51914;DHT22;37940;53.002;6.930;2023-02-28T16:19:18;5.80;99.90
51914;DHT22;37940;53.002;6.930;2023-02-28T16:21:44;5.70;99.90
51914;DHT22;37940;53.002;6.930;2023-02-28T16:24:10;5.70;99.90
51914;DHT22;37940;53.002;6.930;2023-02-28T16:26:36;5.60;99.90
51914;DHT22;37940;53.002;6.930;2023-02-28T16:29:05;5.50;99.90
51914;DHT22;37940;53.002;6.930;2023-02-28T16:31:36;5.50;99.90
51914;DHT22;37940;53.002;6.930;2023-02-28T16:34:04;5.40;99.90
51914;DHT22;37940;53.002;6.930;2023-02-28T16:36:30;5.30;99.90
51914;DHT22;37940;53.002;6.930;2023-02-28T16:38:56;5.20;99.90
51914;DHT22;37940;53.002;6.930;2023-02-28T16:41:24;5.20;99.90
51914;DHT22;37940;53.002;6.930;2023-02-28T16:43:53;5.10;99.90
51914;DHT22;37940;53.002;6.930;2023-02-28T16:46:20;5.00;99.90
51914;DHT22;37940;53.002;6.930;2023-02-28T16:48:49;5.00;99.90
51914;DHT22;37940;53.002;6.930;2023-02-28T16:51:17;4.90;99.90
51914;DHT22;37940;53.002;6.930;2023-02-28T16:53:44;4.90;99.90
51914;DHT22;37940;53.002;6.930;2023-02-28T16:56:16;4.80;99.90
51914;DHT22;37940;53.002;6.930;2023-02-28T16:58:42;4.70;99.90
51914;DHT22;37940;53.002;6.930;2023-02-28T17:01:08;4.60;99.90
51914;DHT22;37940;53.002;6.930;2023-02-28T17:03:34;4.60;99.90
51914;DHT22;37940;53.002;6.930;2023-02-28T17:06:02;4.50;99.90
51914;DHT22;37940;53.002;6.930;2023-02-28T17:08:28;4.40;99.90
51914;DHT22;37940;53.002;6.930;2023-02-28T17:10:55;4.30;99.90
51914;DHT22;37940;53.002;6.930;2023-02-28T17:13:21;4.30;99.90
51914;DHT22;37940;53.002;6.930;2023-02-28T17:15:47;4.10;99.90
51914;DHT22;37940;53.002;6.930;2023-02-28T17:18:15;4.00;99.90
51914;DHT22;37940;53.002;6.930;2023-02-28T17:20:42;3.90;99.90
51914;DHT22;37940;53.002;6.930;2023-02-28T17:23:10;3.80;99.90
51914;DHT22;37940;53.002;6.930;2023-02-28T17:25:36;3.70;99.90
51914;DHT22;37940;53.002;6.930;2023-02-28T17:28:02;3.60;99.90
51914;DHT22;37940;53.002;6.930;2023-02-28T17:30:27;3.40;99.90
51914;DHT22;37940;53.002;6.930;2023-02-28T17:32:55;3.30;99.90
51914;DHT22;37940;53.002;6.930;2023-02-28T17:35:21;3.20;99.90
51914;DHT22;37940;53.002;6.930;2023-02-28T17:37:47;3.10;99.90
51914;DHT22;37940;53.002;6.930;2023-02-28T17:40:19;3.00;99.90
51914;DHT22;37940;53.002;6.930;2023-02-28T17:42:45;2.90;99.90
51914;DHT22;37940;53.002;6.930;2023-02-28T17:45:12;2.80;99.90
51914;DHT22;37940;53.002;6.930;2023-02-28T17:47:38;2.70;99.90
51914;DHT22;37940;53.002;6.930;2023-02-28T17:50:05;2.60;99.90
51914;DHT22;37940;53.002;6.930;2023-02-28T17:52:30;2.50;99.90
51914;DHT22;37940;53.002;6.930;2023-02-28T17:55:03;2.50;99.90
51914;DHT22;37940;53.002;6.930;2023-02-28T17:57:29;2.40;99.90
51914;DHT22;37940;53.002;6.930;2023-02-28T17:59:55;3.10;99.90
51914;DHT22;37940;53.002;6.930;2023-02-28T18:02:20;2.30;99.90
51914;DHT22;37940;53.002;6.930;2023-02-28T18:04:46;2.30;99.90
51914;DHT22;37940;53.002;6.930;2023-02-28T18:07:12;2.30;99.90
51914;DHT22;37940;53.002;6.930;2023-02-28T18:09:38;2.30;99.90
51914;DHT22;37940;53.002;6.930;2023-02-28T18:12:04;2.30;99.90
51914;DHT22;37940;53.002;6.930;2023-02-28T18:14:30;2.20;99.90
51914;DHT22;37940;53.002;6.930;2023-02-28T18:16:56;2.20;99.90
51914;DHT22;37940;53.002;6.930;2023-02-28T18:19:22;2.20;99.90
51914;DHT22;37940;53.002;6.930;2023-02-28T18:21:52;2.20;99.90
51914;DHT22;37940;53.002;6.930;2023-02-28T18:24:20;2.10;99.90
51914;DHT22;37940;53.002;6.930;2023-02-28T18:26:46;2.10;99.90
51914;DHT22;37940;53.002;6.930;2023-02-28T18:29:18;2.00;99.90
51914;DHT22;37940;53.002;6.930;2023-02-28T18:31:44;2.00;99.90